Wetterdaten: aktuell Mittwoch, 23.05.2018 16:26
Datum Zeit Temp. A. Pool Temp. Feuchte A. Luftdruck Regen Wind Richtung Richtung Sonnenschein ET UV Solar Taupunkt Windchill Windben Empfang
23.05.2018 16:26 25,4 C 21,1 C 48 % 1013,3 hPa 0,0 l/m 14,9 km/h (3 Bft) O-NO 67 1 min 0,000 mm 2,0 UV-I 481 W/m 13,6 C 23,8 C 22,5 km/h (4 Bft) 95,65 %
23.05.2018 16:25 25,6 C 21,1 C 48 % 1013,3 hPa 0,0 l/m 11,7 km/h (2 Bft) NO 40 1 min 0,000 mm 1,9 UV-I 440 W/m 13,8 C 24,5 C 16,1 km/h (3 Bft) 100,00 %
23.05.2018 16:24 25,6 C 21,1 C 49 % 1013,3 hPa 0,0 l/m 12,3 km/h (3 Bft) O-NO 57 1 min 0,000 mm 1,9 UV-I 426 W/m 14,1 C 24,4 C 16,1 km/h (3 Bft) 100,00 %
23.05.2018 16:23 25,6 C 21,1 C 50 % 1013,3 hPa 0,0 l/m 6,0 km/h (2 Bft) NO 44 1 min 0,000 mm 1,9 UV-I 415 W/m 14,4 C 25,6 C 9,7 km/h (2 Bft) 100,00 %
23.05.2018 16:22 25,6 C 21,1 C 50 % 1013,3 hPa 0,0 l/m 4,2 km/h (1 Bft) NO 39 1 min 0,000 mm 2,0 UV-I 450 W/m 14,4 C 25,6 C 8,0 km/h (2 Bft) 95,83 %
23.05.2018 16:21 25,6 C 21,1 C 48 % 1013,3 hPa 0,0 l/m 9,1 km/h (2 Bft) NO 44 1 min 0,000 mm 2,1 UV-I 487 W/m 13,8 C 25,0 C 12,9 km/h (3 Bft) 100,00 %
23.05.2018 16:20 25,6 C 21,1 C 48 % 1013,3 hPa 0,0 l/m 12,8 km/h (3 Bft) NO 49 1 min 0,000 mm 2,1 UV-I 508 W/m 13,8 C 24,4 C 19,3 km/h (3 Bft) 100,00 %
23.05.2018 16:19 25,6 C 21,1 C 49 % 1013,3 hPa 0,0 l/m 8,9 km/h (2 Bft) O-NO 59 1 min 0,000 mm 2,2 UV-I 524 W/m 14,1 C 25,0 C 12,9 km/h (3 Bft) 100,00 %
23.05.2018 16:18 25,6 C 21,1 C 49 % 1013,3 hPa 0,0 l/m 8,2 km/h (2 Bft) NO 34 2 min 0,000 mm 2,2 UV-I 517 W/m 14,1 C 25,2 C 12,9 km/h (3 Bft) 100,00 %
23.05.2018 16:16 25,7 C 21,1 C 45 % 1013,3 hPa 0,0 l/m 13,7 km/h (3 Bft) O-NO 74 1 min 0,000 mm 2,2 UV-I 492 W/m 12,9 C 24,3 C 17,7 km/h (3 Bft) 100,00 %
23.05.2018 16:15 25,7 C 21,1 C 49 % 1013,3 hPa 0,0 l/m 14,1 km/h (3 Bft) O-NO 64 1 min 0,000 mm 2,0 UV-I 401 W/m 14,2 C 24,3 C 17,7 km/h (3 Bft) 100,00 %
23.05.2018 16:14 25,8 C 21,1 C 46 % 1013,3 hPa 0,0 l/m 10,5 km/h (2 Bft) NO 39 1 min 0,000 mm 2,1 UV-I 520 W/m 13,3 C 25,0 C 14,5 km/h (3 Bft) 100,00 %
23.05.2018 16:13 25,9 C 21,1 C 46 % 1013,3 hPa 0,0 l/m 9,8 km/h (2 Bft) O-NO 65 2 min 0,000 mm 2,2 UV-I 510 W/m 13,4 C 25,2 C 14,5 km/h (3 Bft) 100,00 %
23.05.2018 16:11 26,1 C 21,1 C 45 % 1013,3 hPa 0,0 l/m 13,9 km/h (3 Bft) O-SO 109 1 min 0,000 mm 2,4 UV-I 552 W/m 13,2 C 24,8 C 19,3 km/h (3 Bft) 100,00 %
23.05.2018 16:10 26,1 C 21,1 C 44 % 1013,3 hPa 0,0 l/m 15,6 km/h (3 Bft) O-NO 58 1 min 0,000 mm 2,5 UV-I 609 W/m 12,9 C 24,6 C 20,9 km/h (4 Bft) 100,00 %
23.05.2018 16:09 26,2 C 21,1 C 43 % 1013,3 hPa 0,0 l/m 14,4 km/h (3 Bft) O 88 1 min 0,000 mm 2,8 UV-I 715 W/m 12,6 C 24,8 C 20,9 km/h (4 Bft) 100,00 %
23.05.2018 16:08 26,2 C 21,1 C 44 % 1013,3 hPa 0,0 l/m 12,3 km/h (3 Bft) O 81 2 min 0,000 mm 2,6 UV-I 657 W/m 13,0 C 25,1 C 16,1 km/h (3 Bft) 98,00 %
23.05.2018 16:06 26,0 C 21,1 C 47 % 1013,3 hPa 0,0 l/m 10,3 km/h (2 Bft) O 88 1 min 0,000 mm 2,6 UV-I 612 W/m 13,8 C 25,2 C 12,9 km/h (3 Bft) 100,00 %
23.05.2018 16:05 26,1 C 21,1 C 46 % 1013,4 hPa 0,0 l/m 11,5 km/h (2 Bft) N-NO 17 1 min 0,000 mm 2,6 UV-I 627 W/m 13,6 C 25,1 C 14,5 km/h (3 Bft) 100,00 %
23.05.2018 16:04 26,1 C 21,1 C 47 % 1013,4 hPa 0,0 l/m 10,5 km/h (2 Bft) N-NO 28 1 min 0,000 mm 2,6 UV-I 553 W/m 13,9 C 25,3 C 14,5 km/h (3 Bft) 95,65 %
23.05.2018 16:03 26,1 C 21,1 C 48 % 1013,4 hPa 0,0 l/m 6,3 km/h (2 Bft) O-NO 78 1 min 0,000 mm 2,6 UV-I 616 W/m 14,2 C 26,1 C 11,3 km/h (2 Bft) 100,00 %
23.05.2018 16:02 26,0 C 21,1 C 44 % 1013,4 hPa 0,0 l/m 3,6 km/h (1 Bft) O-NO 78 2 min 0,508 mm 2,8 UV-I 652 W/m 12,8 C 26,0 C 6,4 km/h (2 Bft) 97,87 %
23.05.2018 16:00 26,1 C 21,1 C 45 % 1013,4 hPa 0,0 l/m 9,4 km/h (2 Bft) NO 34 1 min 0,000 mm 2,8 UV-I 665 W/m 13,2 C 25,5 C 14,5 km/h (3 Bft) 100,00 %
23.05.2018 15:59 26,1 C 21,1 C 46 % 1013,4 hPa 0,0 l/m 9,5 km/h (2 Bft) N-NO 26 1 min 0,000 mm 2,9 UV-I 668 W/m 13,6 C 25,5 C 12,9 km/h (3 Bft) 100,00 %
23.05.2018 15:58 26,1 C 21,1 C 43 % 1013,5 hPa 0,0 l/m 12,7 km/h (3 Bft) O-NO 59 1 min 0,000 mm 2,9 UV-I 666 W/m 12,5 C 25,0 C 16,1 km/h (3 Bft) 95,65 %
23.05.2018 15:57 26,1 C 21,1 C 44 % 1013,4 hPa 0,0 l/m 15,3 km/h (3 Bft) O-NO 67 1 min 0,000 mm 2,9 UV-I 679 W/m 12,9 C 24,6 C 20,9 km/h (4 Bft) 100,00 %
23.05.2018 15:56 26,2 C 21,1 C 43 % 1013,5 hPa 0,0 l/m 16,2 km/h (3 Bft) O-NO 78 1 min 0,000 mm 3,0 UV-I 686 W/m 12,6 C 24,6 C 19,3 km/h (3 Bft) 100,00 %
23.05.2018 15:55 26,2 C 21,1 C 43 % 1013,5 hPa 0,0 l/m 12,5 km/h (3 Bft) O-NO 67 1 min 0,000 mm 3,0 UV-I 686 W/m 12,6 C 25,1 C 17,7 km/h (3 Bft) 100,00 %
23.05.2018 15:54 26,2 C 21,1 C 44 % 1013,5 hPa 0,0 l/m 17,6 km/h (3 Bft) O 90 1 min 0,000 mm 3,0 UV-I 671 W/m 13,0 C 24,5 C 22,5 km/h (4 Bft) 100,00 %
23.05.2018 15:53 26,1 C 21,1 C 44 % 1013,6 hPa 0,0 l/m 10,9 km/h (2 Bft) O-SO 116 1 min 0,000 mm 3,0 UV-I 655 W/m 12,9 C 25,2 C 14,5 km/h (3 Bft) 100,00 %
23.05.2018 15:52 26,0 C 21,1 C 45 % 1013,6 hPa 0,0 l/m 11,2 km/h (2 Bft) O 86 1 min 0,000 mm 3,1 UV-I 698 W/m 13,1 C 25,1 C 14,5 km/h (3 Bft) 100,00 %
_ Min-Zeit 04:39 00:34 14:52 00:00 - 00:19 - - - - - - 05:03 04:39 00:19 04:53
Minimum _ 10,0 C 18,9 C 42 % 1011,7 hPa - 0,0 km/h (0 Bft) - - - - - - 9,0 C 10,0 C 0,0 km/h (0 Bft) 83,33 %
_ Max-Zeit 15:45 15:15 02:04 10:54 00:00 15:54 - - 11:02 14:02 13:22 13:25 12:14 16:03 15:54 00:02
Maximum _ 26,3 C 21,1 C 95 % 1015,3 hPa 0,0 l/m 17,6 km/h
O (3 Bft)
- - 2 min 0,584 mm 5,5 UV-I 1009 W/m 15,7 C 26,1 C 22,5 km/h
O-NO (4 Bft)
100,00 %
Durchschnitt _ 17,2 C 19,4 C 75 % 1013,7 hPa #0,0 l/m 4,2 km/h (1 Bft) SW - #10:40 h #3,937 mm 3,2 UV-I 553 W/m 12,1 C 17,1 C 6,3 km/h (2 Bft) 97,76 %